sensor_id;sensor_type;location;lat;lon;timestamp;pressure;altitude;pressure_sealevel;temperature;humidity
59873;BME280;50750;51.636;4.948;2023-07-08T00:00:44;101796.20;;;24.52;50.80
59873;BME280;50750;51.636;4.948;2023-07-08T00:03:34;101792.13;;;24.51;50.80
59873;BME280;50750;51.636;4.948;2023-07-08T00:06:01;101788.92;;;24.51;50.79
59873;BME280;50750;51.636;4.948;2023-07-08T00:08:27;101784.61;;;24.51;50.69
59873;BME280;50750;51.636;4.948;2023-07-08T00:10:54;101778.17;;;24.51;50.74
59873;BME280;50750;51.636;4.948;2023-07-08T00:13:20;101774.58;;;24.51;50.84
59873;BME280;50750;51.636;4.948;2023-07-08T00:15:47;101778.34;;;24.51;50.73
59873;BME280;50750;51.636;4.948;2023-07-08T00:18:15;101772.61;;;24.51;50.76
59873;BME280;50750;51.636;4.948;2023-07-08T00:20:47;101771.02;;;24.51;50.78
59873;BME280;50750;51.636;4.948;2023-07-08T00:23:14;101767.64;;;24.50;50.76
59873;BME280;50750;51.636;4.948;2023-07-08T00:25:41;101767.08;;;24.51;50.69
59873;BME280;50750;51.636;4.948;2023-07-08T00:28:19;101769.60;;;24.51;50.70
59873;BME280;50750;51.636;4.948;2023-07-08T00:30:47;101774.27;;;24.50;50.78
59873;BME280;50750;51.636;4.948;2023-07-08T00:33:14;101772.83;;;24.50;50.70
59873;BME280;50750;51.636;4.948;2023-07-08T00:35:42;101770.37;;;24.50;50.74
59873;BME280;50750;51.636;4.948;2023-07-08T00:40:54;101770.23;;;24.49;50.78
59873;BME280;50750;51.636;4.948;2023-07-08T00:43:34;101768.66;;;24.49;50.84
59873;BME280;50750;51.636;4.948;2023-07-08T00:48:58;101768.69;;;24.49;50.73
59873;BME280;50750;51.636;4.948;2023-07-08T00:51:26;101768.91;;;24.48;50.73
59873;BME280;50750;51.636;4.948;2023-07-08T00:53:52;101762.30;;;24.48;50.79
59873;BME280;50750;51.636;4.948;2023-07-08T00:56:32;101760.89;;;24.47;50.68
59873;BME280;50750;51.636;4.948;2023-07-08T00:59:07;101754.63;;;24.47;50.92
59873;BME280;50750;51.636;4.948;2023-07-08T01:01:37;101759.48;;;24.46;50.81
59873;BME280;50750;51.636;4.948;2023-07-08T01:06:35;101758.78;;;24.46;50.75
59873;BME280;50750;51.636;4.948;2023-07-08T01:09:08;101757.05;;;24.46;50.79
59873;BME280;50750;51.636;4.948;2023-07-08T01:11:37;101752.55;;;24.46;50.77
59873;BME280;50750;51.636;4.948;2023-07-08T01:14:07;101750.43;;;24.46;50.72
59873;BME280;50750;51.636;4.948;2023-07-08T01:16:35;101750.50;;;24.45;50.74
59873;BME280;50750;51.636;4.948;2023-07-08T01:19:04;101748.20;;;24.44;50.71
59873;BME280;50750;51.636;4.948;2023-07-08T01:21:38;101752.84;;;24.44;50.78
59873;BME280;50750;51.636;4.948;2023-07-08T01:24:08;101751.60;;;24.44;50.69
59873;BME280;50750;51.636;4.948;2023-07-08T01:26:36;101753.39;;;24.44;50.76
59873;BME280;50750;51.636;4.948;2023-07-08T01:29:04;101754.33;;;24.44;50.87
59873;BME280;50750;51.636;4.948;2023-07-08T01:31:31;101755.27;;;24.43;50.77
59873;BME280;50750;51.636;4.948;2023-07-08T01:33:57;101751.36;;;24.42;50.75
59873;BME280;50750;51.636;4.948;2023-07-08T01:36:24;101747.42;;;24.42;50.80
59873;BME280;50750;51.636;4.948;2023-07-08T01:38:51;101744.92;;;24.42;50.75
59873;BME280;50750;51.636;4.948;2023-07-08T01:41:18;101744.40;;;24.42;50.71
59873;BME280;50750;51.636;4.948;2023-07-08T01:43:44;101745.30;;;24.42;50.78
59873;BME280;50750;51.636;4.948;2023-07-08T01:46:18;101745.68;;;24.42;50.63
59873;BME280;50750;51.636;4.948;2023-07-08T01:48:50;101742.65;;;24.41;50.76
59873;BME280;50750;51.636;4.948;2023-07-08T01:51:18;101741.23;;;24.41;50.73
59873;BME280;50750;51.636;4.948;2023-07-08T01:53:45;101739.97;;;24.41;50.75
59873;BME280;50750;51.636;4.948;2023-07-08T01:56:12;101736.60;;;24.41;50.65
59873;BME280;50750;51.636;4.948;2023-07-08T01:58:39;101732.11;;;24.41;50.75
59873;BME280;50750;51.636;4.948;2023-07-08T02:01:07;101728.35;;;24.41;50.75
59873;BME280;50750;51.636;4.948;2023-07-08T02:03:33;101726.20;;;24.41;50.53
59873;BME280;50750;51.636;4.948;2023-07-08T02:06:00;101722.49;;;24.41;50.68
59873;BME280;50750;51.636;4.948;2023-07-08T02:08:27;101719.33;;;24.39;50.68
59873;BME280;50750;51.636;4.948;2023-07-08T02:10:56;101720.17;;;24.40;50.63
59873;BME280;50750;51.636;4.948;2023-07-08T02:13:24;101711.88;;;24.39;50.82
59873;BME280;50750;51.636;4.948;2023-07-08T02:15:50;101711.29;;;24.39;50.57
59873;BME280;50750;51.636;4.948;2023-07-08T02:18:17;101707.04;;;24.39;50.64
59873;BME280;50750;51.636;4.948;2023-07-08T02:20:51;101710.46;;;24.38;50.56
59873;BME280;50750;51.636;4.948;2023-07-08T02:23:18;101707.92;;;24.39;50.61
59873;BME280;50750;51.636;4.948;2023-07-08T02:25:54;101703.70;;;24.38;50.62
59873;BME280;50750;51.636;4.948;2023-07-08T02:28:22;101701.73;;;24.38;50.55
59873;BME280;50750;51.636;4.948;2023-07-08T02:30:48;101697.83;;;24.38;50.56
59873;BME280;50750;51.636;4.948;2023-07-08T02:33:15;101692.27;;;24.38;50.55
59873;BME280;50750;51.636;4.948;2023-07-08T02:35:44;101694.13;;;24.37;50.50
59873;BME280;50750;51.636;4.948;2023-07-08T02:38:13;101686.61;;;24.37;50.53
59873;BME280;50750;51.636;4.948;2023-07-08T02:40:40;101684.29;;;24.37;50.55
59873;BME280;50750;51.636;4.948;2023-07-08T02:43:06;101685.59;;;24.36;50.64
59873;BME280;50750;51.636;4.948;2023-07-08T02:45:32;101681.64;;;24.36;50.50
59873;BME280;50750;51.636;4.948;2023-07-08T02:47:59;101685.75;;;24.37;50.46
59873;BME280;50750;51.636;4.948;2023-07-08T02:50:25;101682.94;;;24.36;50.40
59873;BME280;50750;51.636;4.948;2023-07-08T02:52:51;101685.09;;;24.36;50.48
59873;BME280;50750;51.636;4.948;2023-07-08T02:55:18;101688.52;;;24.35;50.55
59873;BME280;50750;51.636;4.948;2023-07-08T02:57:44;101685.46;;;24.36;50.37
59873;BME280;50750;51.636;4.948;2023-07-08T03:00:12;101685.86;;;24.35;50.38
59873;BME280;50750;51.636;4.948;2023-07-08T03:02:39;101687.14;;;24.35;50.44
59873;BME280;50750;51.636;4.948;2023-07-08T03:05:06;101693.23;;;24.35;50.38
59873;BME280;50750;51.636;4.948;2023-07-08T03:07:34;101695.04;;;24.35;50.46
59873;BME280;50750;51.636;4.948;2023-07-08T03:10:00;101697.20;;;24.34;50.39
59873;BME280;50750;51.636;4.948;2023-07-08T03:12:26;101700.63;;;24.34;50.52
59873;BME280;50750;51.636;4.948;2023-07-08T03:14:53;101702.74;;;24.34;50.35
59873;BME280;50750;51.636;4.948;2023-07-08T03:17:20;101698.70;;;24.33;50.42
59873;BME280;50750;51.636;4.948;2023-07-08T03:19:46;101698.15;;;24.34;50.42
59873;BME280;50750;51.636;4.948;2023-07-08T03:22:12;101705.86;;;24.33;50.36
59873;BME280;50750;51.636;4.948;2023-07-08T03:24:39;101707.02;;;24.32;50.48
59873;BME280;50750;51.636;4.948;2023-07-08T03:27:15;101707.38;;;24.32;50.31
59873;BME280;50750;51.636;4.948;2023-07-08T03:29:42;101708.66;;;24.32;50.37
59873;BME280;50750;51.636;4.948;2023-07-08T03:32:10;101707.61;;;24.32;50.34
59873;BME280;50750;51.636;4.948;2023-07-08T03:34:38;101710.13;;;24.31;50.40
59873;BME280;50750;51.636;4.948;2023-07-08T03:37:05;101713.17;;;24.31;50.41
59873;BME280;50750;51.636;4.948;2023-07-08T03:39:31;101711.38;;;24.31;50.34
59873;BME280;50750;51.636;4.948;2023-07-08T03:41:58;101710.32;;;24.31;50.35
59873;BME280;50750;51.636;4.948;2023-07-08T03:44:24;101711.77;;;24.31;50.29
59873;BME280;50750;51.636;4.948;2023-07-08T03:46:51;101711.10;;;24.30;50.25
59873;BME280;50750;51.636;4.948;2023-07-08T03:49:19;101710.95;;;24.30;50.33
59873;BME280;50750;51.636;4.948;2023-07-08T03:51:49;101715.61;;;24.30;50.49
59873;BME280;50750;51.636;4.948;2023-07-08T03:54:18;101716.34;;;24.30;50.39
59873;BME280;50750;51.636;4.948;2023-07-08T03:56:44;101719.73;;;24.30;50.36
59873;BME280;50750;51.636;4.948;2023-07-08T03:59:11;101720.49;;;24.29;50.32
59873;BME280;50750;51.636;4.948;2023-07-08T04:01:37;101720.35;;;24.29;50.40
59873;BME280;50750;51.636;4.948;2023-07-08T04:04:10;101718.55;;;24.29;50.25
59873;BME280;50750;51.636;4.948;2023-07-08T04:06:37;101720.73;;;24.28;50.32
59873;BME280;50750;51.636;4.948;2023-07-08T04:09:04;101721.11;;;24.28;50.38
59873;BME280;50750;51.636;4.948;2023-07-08T04:11:30;101721.67;;;24.28;50.31
59873;BME280;50750;51.636;4.948;2023-07-08T04:13:57;101719.02;;;24.27;50.19
59873;BME280;50750;51.636;4.948;2023-07-08T04:16:27;101720.28;;;24.27;50.31
59873;BME280;50750;51.636;4.948;2023-07-08T04:18:54;101723.36;;;24.27;50.21
59873;BME280;50750;51.636;4.948;2023-07-08T04:21:23;101722.09;;;24.27;50.35
59873;BME280;50750;51.636;4.948;2023-07-08T04:23:51;101722.29;;;24.27;50.31
59873;BME280;50750;51.636;4.948;2023-07-08T04:26:17;101722.68;;;24.27;50.37
59873;BME280;50750;51.636;4.948;2023-07-08T04:28:45;101722.70;;;24.26;50.40
59873;BME280;50750;51.636;4.948;2023-07-08T04:31:11;101718.95;;;24.26;50.15
59873;BME280;50750;51.636;4.948;2023-07-08T04:33:38;101717.52;;;24.26;50.33
59873;BME280;50750;51.636;4.948;2023-07-08T04:36:10;101717.02;;;24.25;50.36
59873;BME280;50750;51.636;4.948;2023-07-08T04:38:37;101718.98;;;24.25;50.29
59873;BME280;50750;51.636;4.948;2023-07-08T04:41:04;101714.89;;;24.25;50.11
59873;BME280;50750;51.636;4.948;2023-07-08T04:43:31;101713.48;;;24.24;50.27
59873;BME280;50750;51.636;4.948;2023-07-08T04:45:58;101717.23;;;24.24;50.28
59873;BME280;50750;51.636;4.948;2023-07-08T04:48:25;101718.54;;;24.24;50.20
59873;BME280;50750;51.636;4.948;2023-07-08T04:50:52;101721.61;;;24.24;50.27
59873;BME280;50750;51.636;4.948;2023-07-08T04:53:19;101720.02;;;24.23;50.24
59873;BME280;50750;51.636;4.948;2023-07-08T04:55:56;101717.90;;;24.23;50.21
59873;BME280;50750;51.636;4.948;2023-07-08T04:58:42;101715.27;;;24.22;50.15
59873;BME280;50750;51.636;4.948;2023-07-08T05:01:08;101711.98;;;24.23;50.33
59873;BME280;50750;51.636;4.948;2023-07-08T05:03:34;101705.61;;;24.22;50.32
59873;BME280;50750;51.636;4.948;2023-07-08T05:06:01;101709.23;;;24.22;50.39
59873;BME280;50750;51.636;4.948;2023-07-08T05:08:27;101708.17;;;24.22;50.32
59873;BME280;50750;51.636;4.948;2023-07-08T05:10:53;101706.73;;;24.22;50.34
59873;BME280;50750;51.636;4.948;2023-07-08T05:13:20;101703.04;;;24.21;50.31
59873;BME280;50750;51.636;4.948;2023-07-08T05:15:48;101712.30;;;24.21;50.18
59873;BME280;50750;51.636;4.948;2023-07-08T05:18:14;101714.50;;;24.21;50.35
59873;BME280;50750;51.636;4.948;2023-07-08T05:20:40;101717.75;;;24.20;50.31
59873;BME280;50750;51.636;4.948;2023-07-08T05:23:07;101715.77;;;24.20;50.27
59873;BME280;50750;51.636;4.948;2023-07-08T05:25:33;101716.88;;;24.20;50.36
59873;BME280;50750;51.636;4.948;2023-07-08T05:28:00;101717.23;;;24.20;50.24
59873;BME280;50750;51.636;4.948;2023-07-08T05:30:26;101714.91;;;24.20;50.27
59873;BME280;50750;51.636;4.948;2023-07-08T05:32:53;101711.36;;;24.19;50.34
59873;BME280;50750;51.636;4.948;2023-07-08T05:35:19;101709.77;;;24.19;50.23
59873;BME280;50750;51.636;4.948;2023-07-08T05:37:45;101712.29;;;24.19;50.18
59873;BME280;50750;51.636;4.948;2023-07-08T05:40:13;101712.83;;;24.19;50.40
59873;BME280;50750;51.636;4.948;2023-07-08T05:42:40;101716.65;;;24.18;50.26
59873;BME280;50750;51.636;4.948;2023-07-08T05:45:06;101708.94;;;24.19;50.29
59873;BME280;50750;51.636;4.948;2023-07-08T05:47:33;101705.89;;;24.18;50.43
59873;BME280;50750;51.636;4.948;2023-07-08T05:49:59;101707.52;;;24.18;50.30
59873;BME280;50750;51.636;4.948;2023-07-08T05:52:26;101704.67;;;24.18;50.34
59873;BME280;50750;51.636;4.948;2023-07-08T05:54:52;101706.29;;;24.18;50.31
59873;BME280;50750;51.636;4.948;2023-07-08T05:57:19;101702.21;;;24.17;50.34
59873;BME280;50750;51.636;4.948;2023-07-08T05:59:45;101701.48;;;24.18;50.26
59873;BME280;50750;51.636;4.948;2023-07-08T06:02:12;101699.73;;;24.17;50.29
59873;BME280;50750;51.636;4.948;2023-07-08T06:04:40;101704.21;;;24.17;50.40
59873;BME280;50750;51.636;4.948;2023-07-08T06:07:07;101709.63;;;24.16;50.38
59873;BME280;50750;51.636;4.948;2023-07-08T06:09:34;101712.30;;;24.17;50.32
59873;BME280;50750;51.636;4.948;2023-07-08T06:12:01;101712.27;;;24.17;50.42
59873;BME280;50750;51.636;4.948;2023-07-08T06:14:28;101711.61;;;24.16;50.29
59873;BME280;50750;51.636;4.948;2023-07-08T06:16:54;101713.02;;;24.16;50.36
59873;BME280;50750;51.636;4.948;2023-07-08T06:19:21;101715.91;;;24.16;50.25
59873;BME280;50750;51.636;4.948;2023-07-08T06:21:48;101714.15;;;24.16;50.35
59873;BME280;50750;51.636;4.948;2023-07-08T06:24:14;101710.20;;;24.16;50.44
59873;BME280;50750;51.636;4.948;2023-07-08T06:26:41;101712.91;;;24.16;50.31
59873;BME280;50750;51.636;4.948;2023-07-08T06:29:07;101712.88;;;24.16;50.42
59873;BME280;50750;51.636;4.948;2023-07-08T06:31:33;101716.84;;;24.16;50.32
59873;BME280;50750;51.636;4.948;2023-07-08T06:34:01;101716.69;;;24.15;50.32
59873;BME280;50750;51.636;4.948;2023-07-08T06:36:28;101715.95;;;24.16;50.39
59873;BME280;50750;51.636;4.948;2023-07-08T06:38:54;101718.11;;;24.15;50.49
59873;BME280;50750;51.636;4.948;2023-07-08T06:41:20;101713.67;;;24.15;50.44
59873;BME280;50750;51.636;4.948;2023-07-08T06:43:47;101715.05;;;24.16;50.33
59873;BME280;50750;51.636;4.948;2023-07-08T06:46:14;101714.34;;;24.16;50.38
59873;BME280;50750;51.636;4.948;2023-07-08T06:48:40;101716.34;;;24.15;50.41
59873;BME280;50750;51.636;4.948;2023-07-08T06:51:07;101714.73;;;24.15;50.41
59873;BME280;50750;51.636;4.948;2023-07-08T06:53:33;101707.58;;;24.15;50.24
59873;BME280;50750;51.636;4.948;2023-07-08T06:56:00;101703.46;;;24.15;50.29
59873;BME280;50750;51.636;4.948;2023-07-08T06:58:28;101707.40;;;24.15;50.46
59873;BME280;50750;51.636;4.948;2023-07-08T07:00:55;101708.45;;;24.15;50.34
59873;BME280;50750;51.636;4.948;2023-07-08T07:03:21;101711.67;;;24.15;50.42
59873;BME280;50750;51.636;4.948;2023-07-08T07:05:48;101712.04;;;24.15;50.49
59873;BME280;50750;51.636;4.948;2023-07-08T07:08:14;101715.25;;;24.15;50.38
59873;BME280;50750;51.636;4.948;2023-07-08T07:10:41;101710.42;;;24.15;50.50
59873;BME280;50750;51.636;4.948;2023-07-08T07:13:08;101707.93;;;24.15;50.40
59873;BME280;50750;51.636;4.948;2023-07-08T07:15:34;101704.54;;;24.15;50.35
59873;BME280;50750;51.636;4.948;2023-07-08T07:18:01;101709.13;;;24.16;50.42
59873;BME280;50750;51.636;4.948;2023-07-08T07:20:28;101709.52;;;24.16;50.37
59873;BME280;50750;51.636;4.948;2023-07-08T07:22:55;101708.79;;;24.16;50.35
59873;BME280;50750;51.636;4.948;2023-07-08T07:25:21;101711.46;;;24.16;50.53
59873;BME280;50750;51.636;4.948;2023-07-08T07:27:48;101711.62;;;24.16;50.52
59873;BME280;50750;51.636;4.948;2023-07-08T07:30:15;101710.73;;;24.16;50.56
59873;BME280;50750;51.636;4.948;2023-07-08T07:32:42;101709.83;;;24.16;50.39
59873;BME280;50750;51.636;4.948;2023-07-08T07:35:09;101713.92;;;24.16;50.37
59873;BME280;50750;51.636;4.948;2023-07-08T07:37:39;101711.75;;;24.17;50.42
59873;BME280;50750;51.636;4.948;2023-07-08T07:40:11;101714.39;;;24.17;50.69
59873;BME280;50750;51.636;4.948;2023-07-08T07:42:41;101717.61;;;24.17;50.49
59873;BME280;50750;51.636;4.948;2023-07-08T07:45:09;101715.83;;;24.17;50.60
59873;BME280;50750;51.636;4.948;2023-07-08T07:47:36;101713.10;;;24.18;50.61
59873;BME280;50750;51.636;4.948;2023-07-08T07:50:08;101707.73;;;24.18;50.51
59873;BME280;50750;51.636;4.948;2023-07-08T07:52:35;101702.34;;;24.18;50.41
59873;BME280;50750;51.636;4.948;2023-07-08T07:55:03;101700.90;;;24.18;50.65
59873;BME280;50750;51.636;4.948;2023-07-08T07:57:29;101697.48;;;24.19;50.65
59873;BME280;50750;51.636;4.948;2023-07-08T07:59:56;101697.98;;;24.19;50.56
59873;BME280;50750;51.636;4.948;2023-07-08T08:02:22;101695.08;;;24.19;50.56
59873;BME280;50750;51.636;4.948;2023-07-08T08:04:49;101698.25;;;24.20;50.54
59873;BME280;50750;51.636;4.948;2023-07-08T08:07:15;101697.35;;;24.20;50.68
59873;BME280;50750;51.636;4.948;2023-07-08T08:09:42;101696.98;;;24.20;50.68
59873;BME280;50750;51.636;4.948;2023-07-08T08:12:10;101690.91;;;24.20;50.63
59873;BME280;50750;51.636;4.948;2023-07-08T08:14:37;101691.92;;;24.21;50.61
59873;BME280;50750;51.636;4.948;2023-07-08T08:17:04;101689.96;;;24.21;50.65
59873;BME280;50750;51.636;4.948;2023-07-08T08:19:31;101693.68;;;24.21;50.65
59873;BME280;50750;51.636;4.948;2023-07-08T08:21:58;101701.66;;;24.22;50.62
59873;BME280;50750;51.636;4.948;2023-07-08T08:24:25;101703.30;;;24.22;50.75
59873;BME280;50750;51.636;4.948;2023-07-08T08:26:51;101703.23;;;24.23;50.53
59873;BME280;50750;51.636;4.948;2023-07-08T08:29:18;101701.83;;;24.22;50.74
59873;BME280;50750;51.636;4.948;2023-07-08T08:31:44;101705.54;;;24.23;50.74
59873;BME280;50750;51.636;4.948;2023-07-08T08:34:10;101707.31;;;24.23;50.71
59873;BME280;50750;51.636;4.948;2023-07-08T08:36:37;101709.11;;;24.23;50.70
59873;BME280;50750;51.636;4.948;2023-07-08T08:39:03;101710.66;;;24.24;50.66
59873;BME280;50750;51.636;4.948;2023-07-08T08:41:33;101717.39;;;24.25;50.72
59873;BME280;50750;51.636;4.948;2023-07-08T08:44:01;101713.12;;;24.25;50.90
59873;BME280;50750;51.636;4.948;2023-07-08T08:51:49;101717.82;;;24.27;50.93
59873;BME280;50750;51.636;4.948;2023-07-08T08:54:16;101718.92;;;24.27;50.79
59873;BME280;50750;51.636;4.948;2023-07-08T08:57:00;101720.65;;;24.27;50.96
59873;BME280;50750;51.636;4.948;2023-07-08T08:59:51;101726.33;;;24.28;50.93
59873;BME280;50750;51.636;4.948;2023-07-08T09:05:01;101732.34;;;24.29;50.94
59873;BME280;50750;51.636;4.948;2023-07-08T09:07:33;101733.20;;;24.29;50.93
59873;BME280;50750;51.636;4.948;2023-07-08T09:10:07;101736.78;;;24.29;50.85
59873;BME280;50750;51.636;4.948;2023-07-08T09:12:36;101737.94;;;24.30;50.89
59873;BME280;50750;51.636;4.948;2023-07-08T09:15:13;101730.38;;;24.31;50.87
59873;BME280;50750;51.636;4.948;2023-07-08T09:17:41;101720.30;;;24.32;50.92
59873;BME280;50750;51.636;4.948;2023-07-08T09:20:28;101718.85;;;24.32;51.13
59873;BME280;50750;51.636;4.948;2023-07-08T09:23:09;101722.02;;;24.33;51.07
59873;BME280;50750;51.636;4.948;2023-07-08T09:28:13;101719.23;;;24.34;51.04
59873;BME280;50750;51.636;4.948;2023-07-08T09:30:39;101721.16;;;24.35;51.13
59873;BME280;50750;51.636;4.948;2023-07-08T09:33:08;101726.30;;;24.35;51.22
59873;BME280;50750;51.636;4.948;2023-07-08T09:35:44;101725.71;;;24.36;51.19
59873;BME280;50750;51.636;4.948;2023-07-08T09:38:15;101724.41;;;24.36;51.14
59873;BME280;50750;51.636;4.948;2023-07-08T09:40:50;101721.31;;;24.37;51.12
59873;BME280;50750;51.636;4.948;2023-07-08T09:43:28;101711.96;;;24.38;51.12
59873;BME280;50750;51.636;4.948;2023-07-08T09:46:02;101707.26;;;24.39;51.26
59873;BME280;50750;51.636;4.948;2023-07-08T09:48:37;101706.09;;;24.39;51.19
59873;BME280;50750;51.636;4.948;2023-07-08T09:51:04;101708.96;;;24.39;51.07
59873;BME280;50750;51.636;4.948;2023-07-08T09:53:33;101707.09;;;24.41;51.07
59873;BME280;50750;51.636;4.948;2023-07-08T09:56:02;101708.64;;;24.41;51.26
59873;BME280;50750;51.636;4.948;2023-07-08T09:58:40;101701.11;;;24.42;51.29
59873;BME280;50750;51.636;4.948;2023-07-08T10:01:12;101699.59;;;24.43;51.41
59873;BME280;50750;51.636;4.948;2023-07-08T10:03:39;101696.17;;;24.43;51.39
59873;BME280;50750;51.636;4.948;2023-07-08T10:06:20;101697.55;;;24.44;51.35
59873;BME280;50750;51.636;4.948;2023-07-08T10:08:47;101699.84;;;24.45;51.43
59873;BME280;50750;51.636;4.948;2023-07-08T10:13:47;101704.41;;;24.46;51.45
59873;BME280;50750;51.636;4.948;2023-07-08T10:16:16;101707.73;;;24.47;51.59
59873;BME280;50750;51.636;4.948;2023-07-08T10:18:46;101713.41;;;24.48;51.54
59873;BME280;50750;51.636;4.948;2023-07-08T10:23:53;101708.81;;;24.49;51.41
59873;BME280;50750;51.636;4.948;2023-07-08T10:26:31;101706.40;;;24.50;51.57
59873;BME280;50750;51.636;4.948;2023-07-08T10:31:49;101708.66;;;24.52;51.66
59873;BME280;50750;51.636;4.948;2023-07-08T10:39:57;101709.58;;;24.54;51.69
59873;BME280;50750;51.636;4.948;2023-07-08T10:42:38;101714.15;;;24.54;51.62
59873;BME280;50750;51.636;4.948;2023-07-08T10:45:15;101716.45;;;24.55;51.70
59873;BME280;50750;51.636;4.948;2023-07-08T10:56:07;101713.86;;;24.58;51.73
59873;BME280;50750;51.636;4.948;2023-07-08T11:07:12;101707.58;;;24.61;51.95
59873;BME280;50750;51.636;4.948;2023-07-08T11:17:51;101705.40;;;24.63;51.99
59873;BME280;50750;51.636;4.948;2023-07-08T11:20:46;101704.12;;;24.64;51.88
59873;BME280;50750;51.636;4.948;2023-07-08T11:26:29;101696.89;;;24.65;51.90
59873;BME280;50750;51.636;4.948;2023-07-08T11:28:57;101695.91;;;24.66;51.93
59873;BME280;50750;51.636;4.948;2023-07-08T11:31:27;101695.15;;;24.66;52.02
59873;BME280;50750;51.636;4.948;2023-07-08T11:33:55;101694.70;;;24.67;52.21
59873;BME280;50750;51.636;4.948;2023-07-08T11:36:23;101698.00;;;24.69;52.06
59873;BME280;50750;51.636;4.948;2023-07-08T11:38:55;101697.02;;;24.70;52.08
59873;BME280;50750;51.636;4.948;2023-07-08T11:41:24;101696.21;;;24.72;51.99
59873;BME280;50750;51.636;4.948;2023-07-08T11:44:04;101695.25;;;24.72;52.02
59873;BME280;50750;51.636;4.948;2023-07-08T11:46:33;101693.02;;;24.73;51.99
59873;BME280;50750;51.636;4.948;2023-07-08T11:49:04;101693.45;;;24.75;52.13
59873;BME280;50750;51.636;4.948;2023-07-08T11:51:36;101690.13;;;24.76;52.13
59873;BME280;50750;51.636;4.948;2023-07-08T11:56:48;101688.20;;;24.78;52.13
59873;BME280;50750;51.636;4.948;2023-07-08T11:59:19;101682.70;;;24.79;52.24
59873;BME280;50750;51.636;4.948;2023-07-08T12:01:52;101679.80;;;24.80;52.15
59873;BME280;50750;51.636;4.948;2023-07-08T12:07:06;101681.69;;;24.81;52.25
59873;BME280;50750;51.636;4.948;2023-07-08T12:09:39;101678.44;;;24.81;52.24
59873;BME280;50750;51.636;4.948;2023-07-08T12:12:20;101678.13;;;24.83;52.32
59873;BME280;50750;51.636;4.948;2023-07-08T12:14:48;101672.86;;;24.84;52.29
59873;BME280;50750;51.636;4.948;2023-07-08T12:17:14;101670.45;;;24.85;52.36
59873;BME280;50750;51.636;4.948;2023-07-08T12:19:43;101669.83;;;24.86;52.33
59873;BME280;50750;51.636;4.948;2023-07-08T12:22:11;101671.20;;;24.87;52.38
59873;BME280;50750;51.636;4.948;2023-07-08T12:24:40;101672.16;;;24.88;52.37
59873;BME280;50750;51.636;4.948;2023-07-08T12:27:09;101666.53;;;24.89;52.46
59873;BME280;50750;51.636;4.948;2023-07-08T12:29:36;101662.67;;;24.90;52.48
59873;BME280;50750;51.636;4.948;2023-07-08T12:32:03;101661.30;;;24.92;52.43
59873;BME280;50750;51.636;4.948;2023-07-08T12:34:31;101659.67;;;24.92;52.46
59873;BME280;50750;51.636;4.948;2023-07-08T12:36:58;101656.55;;;24.93;52.38
59873;BME280;50750;51.636;4.948;2023-07-08T12:39:24;101652.17;;;24.94;52.53
59873;BME280;50750;51.636;4.948;2023-07-08T12:41:51;101651.77;;;24.95;52.52
59873;BME280;50750;51.636;4.948;2023-07-08T12:44:20;101653.63;;;24.96;52.54
59873;BME280;50750;51.636;4.948;2023-07-08T12:46:49;101651.79;;;24.97;52.31
59873;BME280;50750;51.636;4.948;2023-07-08T12:49:19;101653.66;;;24.98;52.55
59873;BME280;50750;51.636;4.948;2023-07-08T12:51:46;101655.75;;;24.99;52.48
59873;BME280;50750;51.636;4.948;2023-07-08T12:54:13;101649.57;;;25.00;52.61
59873;BME280;50750;51.636;4.948;2023-07-08T12:56:43;101646.45;;;25.00;52.58
59873;BME280;50750;51.636;4.948;2023-07-08T12:59:16;101645.83;;;25.02;52.61
59873;BME280;50750;51.636;4.948;2023-07-08T13:01:45;101645.22;;;25.03;52.65
59873;BME280;50750;51.636;4.948;2023-07-08T13:04:13;101650.15;;;25.04;52.72
59873;BME280;50750;51.636;4.948;2023-07-08T13:06:40;101645.48;;;25.04;52.73
59873;BME280;50750;51.636;4.948;2023-07-08T13:09:41;101642.85;;;25.05;52.76
59873;BME280;50750;51.636;4.948;2023-07-08T13:12:16;101647.12;;;25.06;52.81
59873;BME280;50750;51.636;4.948;2023-07-08T13:14:44;101648.11;;;25.07;52.71
59873;BME280;50750;51.636;4.948;2023-07-08T13:17:13;101642.35;;;25.07;52.70
59873;BME280;50750;51.636;4.948;2023-07-08T13:19:41;101644.75;;;25.09;52.70
59873;BME280;50750;51.636;4.948;2023-07-08T13:22:20;101641.10;;;25.09;52.88
59873;BME280;50750;51.636;4.948;2023-07-08T13:24:48;101640.11;;;25.10;52.85
59873;BME280;50750;51.636;4.948;2023-07-08T13:27:23;101638.80;;;25.11;52.89
59873;BME280;50750;51.636;4.948;2023-07-08T13:30:06;101640.86;;;25.12;52.75
59873;BME280;50750;51.636;4.948;2023-07-08T13:32:37;101638.09;;;25.13;52.92
59873;BME280;50750;51.636;4.948;2023-07-08T13:35:04;101638.37;;;25.14;52.78
59873;BME280;50750;51.636;4.948;2023-07-08T13:37:31;101641.52;;;25.16;53.03
59873;BME280;50750;51.636;4.948;2023-07-08T13:39:57;101642.38;;;25.17;52.81
59873;BME280;50750;51.636;4.948;2023-07-08T13:42:24;101640.85;;;25.18;52.86
59873;BME280;50750;51.636;4.948;2023-07-08T13:44:50;101642.38;;;25.19;52.85
59873;BME280;50750;51.636;4.948;2023-07-08T13:47:27;101651.27;;;25.19;52.77
59873;BME280;50750;51.636;4.948;2023-07-08T13:50:16;101651.71;;;25.21;52.75
59873;BME280;50750;51.636;4.948;2023-07-08T13:52:44;101648.04;;;25.22;53.03
59873;BME280;50750;51.636;4.948;2023-07-08T13:55:17;101646.20;;;25.23;53.02
59873;BME280;50750;51.636;4.948;2023-07-08T13:57:44;101647.02;;;25.24;53.07
59873;BME280;50750;51.636;4.948;2023-07-08T14:00:12;101649.41;;;25.25;52.94
59873;BME280;50750;51.636;4.948;2023-07-08T14:02:43;101651.48;;;25.26;53.16
59873;BME280;50750;51.636;4.948;2023-07-08T14:05:12;101650.11;;;25.27;53.12